sensor_id;sensor_type;location;lat;lon;timestamp;P1;durP1;ratioP1;P2;durP2;ratioP2
41043;SDS011;51680;49.806;18.774;2022-07-04T00:03:03;14.85;;;10.45;;
41043;SDS011;51680;49.806;18.774;2022-07-04T00:06:05;14.52;;;10.85;;
41043;SDS011;51680;49.806;18.774;2022-07-04T00:09:07;18.48;;;10.38;;
41043;SDS011;51680;49.806;18.774;2022-07-04T00:12:09;12.68;;;10.45;;
41043;SDS011;51680;49.806;18.774;2022-07-04T00:15:11;15.38;;;9.82;;
41043;SDS011;51680;49.806;18.774;2022-07-04T00:18:14;15.32;;;10.85;;
41043;SDS011;51680;49.806;18.774;2022-07-04T00:21:16;13.57;;;10.35;;
41043;SDS011;51680;49.806;18.774;2022-07-04T00:24:18;14.32;;;11.27;;
41043;SDS011;51680;49.806;18.774;2022-07-04T00:27:20;14.05;;;10.68;;
41043;SDS011;51680;49.806;18.774;2022-07-04T00:30:22;14.88;;;11.07;;
41043;SDS011;51680;49.806;18.774;2022-07-04T00:33:25;12.73;;;10.55;;
41043;SDS011;51680;49.806;18.774;2022-07-04T00:36:27;11.90;;;9.77;;
41043;SDS011;51680;49.806;18.774;2022-07-04T00:39:28;14.35;;;10.05;;
41043;SDS011;51680;49.806;18.774;2022-07-04T00:42:30;11.85;;;9.50;;
41043;SDS011;51680;49.806;18.774;2022-07-04T00:45:32;12.02;;;10.00;;
41043;SDS011;51680;49.806;18.774;2022-07-04T00:48:35;14.82;;;9.70;;
41043;SDS011;51680;49.806;18.774;2022-07-04T00:51:37;15.67;;;9.63;;
41043;SDS011;51680;49.806;18.774;2022-07-04T00:54:40;12.25;;;9.50;;
41043;SDS011;51680;49.806;18.774;2022-07-04T00:57:42;12.63;;;8.90;;
41043;SDS011;51680;49.806;18.774;2022-07-04T01:00:44;11.00;;;9.13;;
41043;SDS011;51680;49.806;18.774;2022-07-04T01:03:47;20.77;;;9.68;;
41043;SDS011;51680;49.806;18.774;2022-07-04T01:06:49;11.93;;;9.13;;
41043;SDS011;51680;49.806;18.774;2022-07-04T01:09:51;13.57;;;9.52;;
41043;SDS011;51680;49.806;18.774;2022-07-04T01:12:54;13.75;;;10.73;;
41043;SDS011;51680;49.806;18.774;2022-07-04T01:15:56;12.65;;;10.65;;
41043;SDS011;51680;49.806;18.774;2022-07-04T01:19:18;14.35;;;10.80;;
41043;SDS011;51680;49.806;18.774;2022-07-04T01:22:21;14.90;;;11.17;;
41043;SDS011;51680;49.806;18.774;2022-07-04T01:25:22;14.82;;;11.65;;
41043;SDS011;51680;49.806;18.774;2022-07-04T01:28:24;15.98;;;11.30;;
41043;SDS011;51680;49.806;18.774;2022-07-04T01:31:27;16.48;;;11.40;;
41043;SDS011;51680;49.806;18.774;2022-07-04T01:34:28;13.77;;;11.18;;
41043;SDS011;51680;49.806;18.774;2022-07-04T01:37:31;14.48;;;11.77;;
41043;SDS011;51680;49.806;18.774;2022-07-04T01:40:33;16.27;;;12.03;;
41043;SDS011;51680;49.806;18.774;2022-07-04T01:43:35;15.55;;;11.48;;
41043;SDS011;51680;49.806;18.774;2022-07-04T01:46:37;16.73;;;11.45;;
41043;SDS011;51680;49.806;18.774;2022-07-04T01:49:38;16.65;;;12.35;;
41043;SDS011;51680;49.806;18.774;2022-07-04T01:52:41;18.45;;;12.60;;
41043;SDS011;51680;49.806;18.774;2022-07-04T01:55:44;15.32;;;12.10;;
41043;SDS011;51680;49.806;18.774;2022-07-04T01:58:45;17.20;;;13.52;;
41043;SDS011;51680;49.806;18.774;2022-07-04T02:01:47;16.33;;;12.73;;
41043;SDS011;51680;49.806;18.774;2022-07-04T02:04:48;15.27;;;13.15;;
41043;SDS011;51680;49.806;18.774;2022-07-04T02:07:51;18.67;;;13.48;;
41043;SDS011;51680;49.806;18.774;2022-07-04T02:10:53;25.77;;;14.30;;
41043;SDS011;51680;49.806;18.774;2022-07-04T02:13:55;17.83;;;14.30;;
41043;SDS011;51680;49.806;18.774;2022-07-04T02:16:56;17.15;;;13.15;;
41043;SDS011;51680;49.806;18.774;2022-07-04T02:19:58;16.67;;;12.57;;
41043;SDS011;51680;49.806;18.774;2022-07-04T02:23:01;17.25;;;12.93;;
41043;SDS011;51680;49.806;18.774;2022-07-04T02:26:03;20.23;;;12.75;;
41043;SDS011;51680;49.806;18.774;2022-07-04T02:29:05;16.67;;;12.82;;
41043;SDS011;51680;49.806;18.774;2022-07-04T02:32:07;16.83;;;12.23;;
41043;SDS011;51680;49.806;18.774;2022-07-04T02:35:09;13.75;;;10.73;;
41043;SDS011;51680;49.806;18.774;2022-07-04T02:38:13;14.48;;;11.10;;
41043;SDS011;51680;49.806;18.774;2022-07-04T02:41:15;12.80;;;9.57;;
41043;SDS011;51680;49.806;18.774;2022-07-04T02:44:16;12.80;;;9.75;;
41043;SDS011;51680;49.806;18.774;2022-07-04T02:47:18;16.42;;;9.45;;
41043;SDS011;51680;49.806;18.774;2022-07-04T02:50:20;13.48;;;9.18;;
41043;SDS011;51680;49.806;18.774;2022-07-04T02:53:23;11.02;;;8.25;;
41043;SDS011;51680;49.806;18.774;2022-07-04T02:56:25;15.30;;;9.60;;
41043;SDS011;51680;49.806;18.774;2022-07-04T02:59:27;12.13;;;9.20;;
41043;SDS011;51680;49.806;18.774;2022-07-04T03:02:29;11.70;;;9.20;;
41043;SDS011;51680;49.806;18.774;2022-07-04T03:05:30;11.50;;;8.63;;
41043;SDS011;51680;49.806;18.774;2022-07-04T03:08:34;11.32;;;8.82;;
41043;SDS011;51680;49.806;18.774;2022-07-04T03:11:35;10.97;;;8.90;;
41043;SDS011;51680;49.806;18.774;2022-07-04T03:14:37;13.82;;;9.43;;
41043;SDS011;51680;49.806;18.774;2022-07-04T03:17:39;12.68;;;8.80;;
41043;SDS011;51680;49.806;18.774;2022-07-04T03:20:41;11.60;;;8.90;;
41043;SDS011;51680;49.806;18.774;2022-07-04T03:23:44;13.65;;;8.32;;
41043;SDS011;51680;49.806;18.774;2022-07-04T03:26:57;10.52;;;8.73;;
41043;SDS011;51680;49.806;18.774;2022-07-04T03:29:59;12.35;;;8.73;;
41043;SDS011;51680;49.806;18.774;2022-07-04T03:33:01;10.15;;;8.20;;
41043;SDS011;51680;49.806;18.774;2022-07-04T03:36:03;10.75;;;8.18;;
41043;SDS011;51680;49.806;18.774;2022-07-04T03:39:06;10.65;;;8.55;;
41043;SDS011;51680;49.806;18.774;2022-07-04T03:42:08;12.10;;;8.10;;
41043;SDS011;51680;49.806;18.774;2022-07-04T03:45:10;10.25;;;7.88;;
41043;SDS011;51680;49.806;18.774;2022-07-04T03:48:12;10.18;;;7.40;;
41043;SDS011;51680;49.806;18.774;2022-07-04T03:51:14;11.57;;;7.68;;
41043;SDS011;51680;49.806;18.774;2022-07-04T03:54:17;10.48;;;7.40;;
41043;SDS011;51680;49.806;18.774;2022-07-04T03:57:19;13.37;;;7.40;;
41043;SDS011;51680;49.806;18.774;2022-07-04T04:00:20;8.60;;;6.75;;
41043;SDS011;51680;49.806;18.774;2022-07-04T04:03:22;8.63;;;7.20;;
41043;SDS011;51680;49.806;18.774;2022-07-04T04:06:41;8.90;;;7.53;;
41043;SDS011;51680;49.806;18.774;2022-07-04T04:09:44;9.52;;;7.47;;
41043;SDS011;51680;49.806;18.774;2022-07-04T04:12:46;8.95;;;7.25;;
41043;SDS011;51680;49.806;18.774;2022-07-04T04:15:48;12.55;;;8.20;;
41043;SDS011;51680;49.806;18.774;2022-07-04T04:18:50;11.82;;;7.55;;
41043;SDS011;51680;49.806;18.774;2022-07-04T04:21:51;11.43;;;7.28;;
41043;SDS011;51680;49.806;18.774;2022-07-04T04:24:54;14.00;;;7.35;;
41043;SDS011;51680;49.806;18.774;2022-07-04T04:27:56;11.60;;;7.57;;
41043;SDS011;51680;49.806;18.774;2022-07-04T04:30:58;13.50;;;7.57;;
41043;SDS011;51680;49.806;18.774;2022-07-04T04:34:00;9.15;;;7.65;;
41043;SDS011;51680;49.806;18.774;2022-07-04T04:37:02;13.55;;;7.30;;
41043;SDS011;51680;49.806;18.774;2022-07-04T04:40:06;9.27;;;7.30;;
41043;SDS011;51680;49.806;18.774;2022-07-04T04:43:08;11.00;;;7.63;;
41043;SDS011;51680;49.806;18.774;2022-07-04T04:46:10;11.07;;;8.40;;
41043;SDS011;51680;49.806;18.774;2022-07-04T04:49:12;11.05;;;7.85;;
41043;SDS011;51680;49.806;18.774;2022-07-04T04:52:14;9.45;;;7.60;;
41043;SDS011;51680;49.806;18.774;2022-07-04T04:55:17;8.38;;;7.35;;
41043;SDS011;51680;49.806;18.774;2022-07-04T04:58:19;9.63;;;7.13;;
41043;SDS011;51680;49.806;18.774;2022-07-04T05:01:20;9.43;;;7.68;;
41043;SDS011;51680;49.806;18.774;2022-07-04T05:04:22;10.30;;;7.50;;
41043;SDS011;51680;49.806;18.774;2022-07-04T05:07:24;10.70;;;7.25;;
41043;SDS011;51680;49.806;18.774;2022-07-04T05:10:27;9.23;;;7.15;;
41043;SDS011;51680;49.806;18.774;2022-07-04T05:13:29;9.73;;;7.43;;
41043;SDS011;51680;49.806;18.774;2022-07-04T05:16:30;10.73;;;7.45;;
41043;SDS011;51680;49.806;18.774;2022-07-04T05:19:33;12.05;;;7.75;;
41043;SDS011;51680;49.806;18.774;2022-07-04T05:22:35;10.90;;;7.78;;
41043;SDS011;51680;49.806;18.774;2022-07-04T05:25:38;8.85;;;7.00;;
41043;SDS011;51680;49.806;18.774;2022-07-04T05:28:40;8.93;;;7.40;;
41043;SDS011;51680;49.806;18.774;2022-07-04T05:31:41;10.38;;;7.13;;
41043;SDS011;51680;49.806;18.774;2022-07-04T05:34:43;12.48;;;8.05;;
41043;SDS011;51680;49.806;18.774;2022-07-04T05:37:45;8.75;;;7.43;;
41043;SDS011;51680;49.806;18.774;2022-07-04T05:40:48;12.02;;;7.75;;
41043;SDS011;51680;49.806;18.774;2022-07-04T05:43:50;9.77;;;7.13;;
41043;SDS011;51680;49.806;18.774;2022-07-04T05:46:52;11.15;;;7.43;;
41043;SDS011;51680;49.806;18.774;2022-07-04T05:49:54;12.60;;;8.18;;
41043;SDS011;51680;49.806;18.774;2022-07-04T05:53:15;10.70;;;7.25;;
41043;SDS011;51680;49.806;18.774;2022-07-04T05:56:18;10.02;;;7.38;;
41043;SDS011;51680;49.806;18.774;2022-07-04T05:59:20;12.00;;;7.72;;
41043;SDS011;51680;49.806;18.774;2022-07-04T06:02:22;9.27;;;7.07;;
41043;SDS011;51680;49.806;18.774;2022-07-04T06:05:24;9.90;;;7.50;;
41043;SDS011;51680;49.806;18.774;2022-07-04T06:08:25;12.70;;;7.90;;
41043;SDS011;51680;49.806;18.774;2022-07-04T06:11:29;9.60;;;6.78;;
41043;SDS011;51680;49.806;18.774;2022-07-04T06:14:31;12.97;;;7.30;;
41043;SDS011;51680;49.806;18.774;2022-07-04T06:17:33;11.85;;;7.10;;
41043;SDS011;51680;49.806;18.774;2022-07-04T06:20:34;10.73;;;7.72;;
41043;SDS011;51680;49.806;18.774;2022-07-04T06:23:36;12.98;;;7.90;;
41043;SDS011;51680;49.806;18.774;2022-07-04T06:26:40;8.45;;;6.85;;
41043;SDS011;51680;49.806;18.774;2022-07-04T06:29:42;8.27;;;7.18;;
41043;SDS011;51680;49.806;18.774;2022-07-04T06:32:44;9.48;;;6.60;;
41043;SDS011;51680;49.806;18.774;2022-07-04T06:35:46;9.97;;;6.50;;
41043;SDS011;51680;49.806;18.774;2022-07-04T06:38:51;8.57;;;6.10;;
41043;SDS011;51680;49.806;18.774;2022-07-04T06:41:54;8.43;;;6.25;;
41043;SDS011;51680;49.806;18.774;2022-07-04T06:44:56;9.13;;;6.25;;
41043;SDS011;51680;49.806;18.774;2022-07-04T06:47:58;9.32;;;6.55;;
41043;SDS011;51680;49.806;18.774;2022-07-04T06:51:00;8.60;;;6.38;;
41043;SDS011;51680;49.806;18.774;2022-07-04T06:54:01;7.72;;;5.70;;
41043;SDS011;51680;49.806;18.774;2022-07-04T06:57:05;9.20;;;6.03;;
41043;SDS011;51680;49.806;18.774;2022-07-04T07:00:07;7.68;;;6.25;;
41043;SDS011;51680;49.806;18.774;2022-07-04T07:03:10;7.30;;;6.18;;
41043;SDS011;51680;49.806;18.774;2022-07-04T07:06:12;7.70;;;6.53;;
41043;SDS011;51680;49.806;18.774;2022-07-04T07:09:14;10.18;;;6.95;;
41043;SDS011;51680;49.806;18.774;2022-07-04T07:12:17;8.05;;;6.60;;
41043;SDS011;51680;49.806;18.774;2022-07-04T07:15:18;7.95;;;5.72;;
41043;SDS011;51680;49.806;18.774;2022-07-04T07:18:20;6.57;;;5.65;;
41043;SDS011;51680;49.806;18.774;2022-07-04T07:21:22;7.25;;;6.22;;
41043;SDS011;51680;49.806;18.774;2022-07-04T07:24:24;11.82;;;5.90;;
41043;SDS011;51680;49.806;18.774;2022-07-04T07:27:27;7.07;;;5.65;;
41043;SDS011;51680;49.806;18.774;2022-07-04T07:30:29;8.32;;;5.72;;
41043;SDS011;51680;49.806;18.774;2022-07-04T07:33:30;10.30;;;6.10;;
41043;SDS011;51680;49.806;18.774;2022-07-04T07:36:32;8.82;;;5.57;;
41043;SDS011;51680;49.806;18.774;2022-07-04T07:39:34;7.65;;;5.72;;
41043;SDS011;51680;49.806;18.774;2022-07-04T07:42:37;8.38;;;5.50;;
41043;SDS011;51680;49.806;18.774;2022-07-04T07:45:39;8.68;;;5.60;;
41043;SDS011;51680;49.806;18.774;2022-07-04T07:48:41;11.57;;;6.00;;
41043;SDS011;51680;49.806;18.774;2022-07-04T07:51:43;11.48;;;5.40;;
41043;SDS011;51680;49.806;18.774;2022-07-04T07:54:44;10.13;;;5.35;;
41043;SDS011;51680;49.806;18.774;2022-07-04T07:57:47;8.68;;;5.00;;
41043;SDS011;51680;49.806;18.774;2022-07-04T08:00:49;5.70;;;3.83;;
41043;SDS011;51680;49.806;18.774;2022-07-04T08:03:51;6.43;;;4.00;;
41043;SDS011;51680;49.806;18.774;2022-07-04T08:07:10;6.90;;;3.85;;
41043;SDS011;51680;49.806;18.774;2022-07-04T08:10:13;6.65;;;3.47;;
41043;SDS011;51680;49.806;18.774;2022-07-04T08:13:16;6.03;;;3.40;;
41043;SDS011;51680;49.806;18.774;2022-07-04T08:16:18;5.93;;;3.00;;
41043;SDS011;51680;49.806;18.774;2022-07-04T08:19:20;3.53;;;2.90;;
41043;SDS011;51680;49.806;18.774;2022-07-04T08:22:22;4.38;;;2.97;;
41043;SDS011;51680;49.806;18.774;2022-07-04T08:25:23;4.47;;;3.00;;
41043;SDS011;51680;49.806;18.774;2022-07-04T08:28:29;4.03;;;2.92;;
41043;SDS011;51680;49.806;18.774;2022-07-04T08:31:31;3.03;;;2.50;;
41043;SDS011;51680;49.806;18.774;2022-07-04T08:34:32;3.65;;;2.58;;
41043;SDS011;51680;49.806;18.774;2022-07-04T08:37:34;3.60;;;2.10;;
41043;SDS011;51680;49.806;18.774;2022-07-04T08:40:36;3.55;;;1.98;;
41043;SDS011;51680;49.806;18.774;2022-07-04T08:43:39;3.45;;;2.50;;
41043;SDS011;51680;49.806;18.774;2022-07-04T08:46:43;4.20;;;2.20;;
41043;SDS011;51680;49.806;18.774;2022-07-04T08:49:46;3.15;;;2.33;;
41043;SDS011;51680;49.806;18.774;2022-07-04T08:52:56;4.20;;;2.40;;
41043;SDS011;51680;49.806;18.774;2022-07-04T08:56:01;4.30;;;2.55;;
41043;SDS011;51680;49.806;18.774;2022-07-04T08:59:22;3.38;;;2.13;;
41043;SDS011;51680;49.806;18.774;2022-07-04T09:02:24;2.53;;;1.90;;
41043;SDS011;51680;49.806;18.774;2022-07-04T09:05:28;2.45;;;1.95;;
41043;SDS011;51680;49.806;18.774;2022-07-04T09:08:32;4.53;;;1.90;;
41043;SDS011;51680;49.806;18.774;2022-07-04T09:11:34;2.90;;;1.67;;
41043;SDS011;51680;49.806;18.774;2022-07-04T09:14:37;2.80;;;1.80;;
41043;SDS011;51680;49.806;18.774;2022-07-04T09:17:39;4.63;;;1.98;;
41043;SDS011;51680;49.806;18.774;2022-07-04T09:20:41;3.35;;;1.80;;
41043;SDS011;51680;49.806;18.774;2022-07-04T09:23:42;2.70;;;1.73;;
41043;SDS011;51680;49.806;18.774;2022-07-04T09:26:44;3.45;;;1.77;;
41043;SDS011;51680;49.806;18.774;2022-07-04T09:29:52;4.72;;;1.85;;
41043;SDS011;51680;49.806;18.774;2022-07-04T09:32:55;2.75;;;1.20;;
41043;SDS011;51680;49.806;18.774;2022-07-04T09:36:09;2.92;;;1.48;;
41043;SDS011;51680;49.806;18.774;2022-07-04T09:39:12;3.15;;;1.27;;
41043;SDS011;51680;49.806;18.774;2022-07-04T09:42:15;1.25;;;1.05;;
41043;SDS011;51680;49.806;18.774;2022-07-04T09:45:22;2.17;;;1.35;;
41043;SDS011;51680;49.806;18.774;2022-07-04T09:48:24;4.55;;;1.33;;
41043;SDS011;51680;49.806;18.774;2022-07-04T09:51:37;5.73;;;1.30;;
41043;SDS011;51680;49.806;18.774;2022-07-04T09:54:39;1.77;;;1.17;;
41043;SDS011;51680;49.806;18.774;2022-07-04T09:57:43;2.17;;;1.40;;
41043;SDS011;51680;49.806;18.774;2022-07-04T10:00:47;3.90;;;1.70;;
41043;SDS011;51680;49.806;18.774;2022-07-04T10:03:51;1.80;;;1.25;;
41043;SDS011;51680;49.806;18.774;2022-07-04T10:06:52;2.03;;;1.10;;
41043;SDS011;51680;49.806;18.774;2022-07-04T10:09:54;1.83;;;1.38;;
41043;SDS011;51680;49.806;18.774;2022-07-04T10:12:56;2.88;;;1.50;;
41043;SDS011;51680;49.806;18.774;2022-07-04T10:16:02;4.10;;;1.50;;
41043;SDS011;51680;49.806;18.774;2022-07-04T10:19:04;2.38;;;1.42;;
41043;SDS011;51680;49.806;18.774;2022-07-04T10:22:06;2.17;;;1.40;;
41043;SDS011;51680;49.806;18.774;2022-07-04T10:28:12;2.70;;;1.35;;
41043;SDS011;51680;49.806;18.774;2022-07-04T10:31:15;3.70;;;1.73;;
41043;SDS011;51680;49.806;18.774;2022-07-04T10:34:18;2.22;;;1.50;;
41043;SDS011;51680;49.806;18.774;2022-07-04T10:37:20;2.92;;;1.50;;
41043;SDS011;51680;49.806;18.774;2022-07-04T10:47:20;4.15;;;1.73;;
41043;SDS011;51680;49.806;18.774;2022-07-04T10:50:27;6.35;;;1.75;;
41043;SDS011;51680;49.806;18.774;2022-07-04T10:53:29;3.03;;;1.40;;
41043;SDS011;51680;49.806;18.774;2022-07-04T10:56:34;3.30;;;1.67;;
41043;SDS011;51680;49.806;18.774;2022-07-04T10:59:40;4.53;;;1.48;;
41043;SDS011;51680;49.806;18.774;2022-07-04T11:02:44;2.10;;;1.50;;
41043;SDS011;51680;49.806;18.774;2022-07-04T11:05:46;1.83;;;1.40;;
41043;SDS011;51680;49.806;18.774;2022-07-04T11:09:10;2.88;;;1.40;;
41043;SDS011;51680;49.806;18.774;2022-07-04T11:12:15;6.68;;;1.60;;
41043;SDS011;51680;49.806;18.774;2022-07-04T11:15:17;3.08;;;1.13;;
41043;SDS011;51680;49.806;18.774;2022-07-04T11:18:20;3.05;;;1.23;;
41043;SDS011;51680;49.806;18.774;2022-07-04T11:21:22;1.98;;;1.20;;
41043;SDS011;51680;49.806;18.774;2022-07-04T11:24:25;4.95;;;1.60;;
41043;SDS011;51680;49.806;18.774;2022-07-04T11:27:28;2.92;;;1.23;;
41043;SDS011;51680;49.806;18.774;2022-07-04T11:30:30;3.60;;;1.50;;
41043;SDS011;51680;49.806;18.774;2022-07-04T11:33:34;2.20;;;1.20;;
41043;SDS011;51680;49.806;18.774;2022-07-04T11:39:38;2.55;;;1.48;;
41043;SDS011;51680;49.806;18.774;2022-07-04T11:42:40;3.70;;;1.40;;
41043;SDS011;51680;49.806;18.774;2022-07-04T11:46:18;2.63;;;1.50;;
41043;SDS011;51680;49.806;18.774;2022-07-04T11:49:21;8.40;;;1.65;;
41043;SDS011;51680;49.806;18.774;2022-07-04T11:52:23;1.75;;;1.40;;
41043;SDS011;51680;49.806;18.774;2022-07-04T11:58:37;3.20;;;1.42;;
41043;SDS011;51680;49.806;18.774;2022-07-04T12:01:40;2.80;;;1.15;;
41043;SDS011;51680;49.806;18.774;2022-07-04T12:04:44;2.28;;;1.20;;
41043;SDS011;51680;49.806;18.774;2022-07-04T12:07:46;1.88;;;1.10;;
41043;SDS011;51680;49.806;18.774;2022-07-04T12:10:49;2.72;;;1.02;;
41043;SDS011;51680;49.806;18.774;2022-07-04T12:13:52;3.47;;;1.33;;
41043;SDS011;51680;49.806;18.774;2022-07-04T12:17:13;4.50;;;1.30;;
41043;SDS011;51680;49.806;18.774;2022-07-04T12:20:19;4.03;;;1.50;;
41043;SDS011;51680;49.806;18.774;2022-07-04T12:23:21;2.58;;;1.23;;
41043;SDS011;51680;49.806;18.774;2022-07-04T12:26:26;1.75;;;1.20;;
41043;SDS011;51680;49.806;18.774;2022-07-04T12:29:28;2.45;;;1.40;;
41043;SDS011;51680;49.806;18.774;2022-07-04T12:32:48;2.92;;;1.60;;
41043;SDS011;51680;49.806;18.774;2022-07-04T12:35:52;3.92;;;1.50;;
41043;SDS011;51680;49.806;18.774;2022-07-04T12:38:56;3.42;;;1.23;;
41043;SDS011;51680;49.806;18.774;2022-07-04T12:42:05;3.42;;;1.38;;
41043;SDS011;51680;49.806;18.774;2022-07-04T12:45:08;2.50;;;1.20;;
41043;SDS011;51680;49.806;18.774;2022-07-04T12:48:17;6.93;;;1.70;;
41043;SDS011;51680;49.806;18.774;2022-07-04T12:51:22;3.25;;;1.98;;
41043;SDS011;51680;49.806;18.774;2022-07-04T12:54:25;4.55;;;1.60;;
41043;SDS011;51680;49.806;18.774;2022-07-04T12:57:27;4.55;;;1.90;;
41043;SDS011;51680;49.806;18.774;2022-07-04T13:00:28;3.13;;;1.70;;
41043;SDS011;51680;49.806;18.774;2022-07-04T13:03:30;2.72;;;1.58;;
41043;SDS011;51680;49.806;18.774;2022-07-04T13:06:33;4.35;;;2.45;;
41043;SDS011;51680;49.806;18.774;2022-07-04T13:09:36;2.22;;;1.60;;
41043;SDS011;51680;49.806;18.774;2022-07-04T13:12:37;2.47;;;1.33;;
41043;SDS011;51680;49.806;18.774;2022-07-04T13:15:39;4.00;;;1.55;;
41043;SDS011;51680;49.806;18.774;2022-07-04T13:18:41;5.25;;;1.55;;
41043;SDS011;51680;49.806;18.774;2022-07-04T13:21:44;3.15;;;1.30;;
41043;SDS011;51680;49.806;18.774;2022-07-04T13:24:48;2.28;;;1.30;;
41043;SDS011;51680;49.806;18.774;2022-07-04T13:27:50;2.80;;;1.40;;
41043;SDS011;51680;49.806;18.774;2022-07-04T13:30:51;3.22;;;1.50;;
41043;SDS011;51680;49.806;18.774;2022-07-04T13:33:53;2.20;;;1.42;;
41043;SDS011;51680;49.806;18.774;2022-07-04T13:36:57;6.25;;;1.58;;
41043;SDS011;51680;49.806;18.774;2022-07-04T13:39:58;3.53;;;1.35;;
41043;SDS011;51680;49.806;18.774;2022-07-04T13:43:01;2.53;;;1.40;;
41043;SDS011;51680;49.806;18.774;2022-07-04T13:46:09;4.07;;;1.48;;
41043;SDS011;51680;49.806;18.774;2022-07-04T13:49:11;3.20;;;1.50;;
41043;SDS011;51680;49.806;18.774;2022-07-04T13:52:14;2.17;;;1.50;;
41043;SDS011;51680;49.806;18.774;2022-07-04T13:55:16;5.13;;;1.50;;
41043;SDS011;51680;49.806;18.774;2022-07-04T13:58:18;3.58;;;1.40;;
41043;SDS011;51680;49.806;18.774;2022-07-04T14:01:20;3.85;;;1.80;;
41043;SDS011;51680;49.806;18.774;2022-07-04T14:04:21;2.47;;;1.50;;
41043;SDS011;51680;49.806;18.774;2022-07-04T14:07:25;2.42;;;1.40;;
41043;SDS011;51680;49.806;18.774;2022-07-04T14:10:27;3.40;;;1.50;;
41043;SDS011;51680;49.806;18.774;2022-07-04T14:13:28;2.30;;;1.38;;
41043;SDS011;51680;49.806;18.774;2022-07-04T14:16:30;3.22;;;1.48;;
41043;SDS011;51680;49.806;18.774;2022-07-04T14:19:32;3.33;;;1.67;;
41043;SDS011;51680;49.806;18.774;2022-07-04T14:22:35;2.38;;;1.70;;
41043;SDS011;51680;49.806;18.774;2022-07-04T14:28:39;4.70;;;1.70;;
41043;SDS011;51680;49.806;18.774;2022-07-04T14:31:42;4.82;;;2.33;;
41043;SDS011;51680;49.806;18.774;2022-07-04T14:34:43;6.93;;;1.80;;
41043;SDS011;51680;49.806;18.774;2022-07-04T14:37:47;3.80;;;2.08;;
41043;SDS011;51680;49.806;18.774;2022-07-04T14:43:51;3.65;;;1.38;;
41043;SDS011;51680;49.806;18.774;2022-07-04T14:46:54;2.90;;;1.33;;
41043;SDS011;51680;49.806;18.774;2022-07-04T14:49:56;3.15;;;1.38;;
41043;SDS011;51680;49.806;18.774;2022-07-04T14:52:59;3.38;;;1.60;;
41043;SDS011;51680;49.806;18.774;2022-07-04T14:56:01;3.15;;;1.50;;
41043;SDS011;51680;49.806;18.774;2022-07-04T14:59:03;4.65;;;2.00;;
41043;SDS011;51680;49.806;18.774;2022-07-04T15:02:05;5.20;;;2.20;;
41043;SDS011;51680;49.806;18.774;2022-07-04T15:05:08;5.72;;;1.73;;
41043;SDS011;51680;49.806;18.774;2022-07-04T15:08:11;2.17;;;1.10;;
41043;SDS011;51680;49.806;18.774;2022-07-04T15:11:13;2.35;;;1.25;;
41043;SDS011;51680;49.806;18.774;2022-07-04T15:14:15;3.30;;;1.65;;
41043;SDS011;51680;49.806;18.774;2022-07-04T15:17:18;3.78;;;1.60;;
41043;SDS011;51680;49.806;18.774;2022-07-04T15:20:20;4.00;;;1.70;;
41043;SDS011;51680;49.806;18.774;2022-07-04T15:23:41;5.82;;;1.95;;
41043;SDS011;51680;49.806;18.774;2022-07-04T15:27:00;4.70;;;1.80;;
41043;SDS011;51680;49.806;18.774;2022-07-04T15:30:02;5.07;;;1.50;;
41043;SDS011;51680;49.806;18.774;2022-07-04T15:33:04;3.55;;;1.77;;
41043;SDS011;51680;49.806;18.774;2022-07-04T15:36:06;3.95;;;1.58;;
41043;SDS011;51680;49.806;18.774;2022-07-04T15:39:10;5.70;;;1.85;;
41043;SDS011;51680;49.806;18.774;2022-07-04T15:42:13;4.32;;;1.80;;
41043;SDS011;51680;49.806;18.774;2022-07-04T15:45:15;4.75;;;2.13;;
41043;SDS011;51680;49.806;18.774;2022-07-04T15:48:17;6.22;;;2.22;;
41043;SDS011;51680;49.806;18.774;2022-07-04T15:51:19;4.00;;;1.92;;
41043;SDS011;51680;49.806;18.774;2022-07-04T15:54:22;4.00;;;1.90;;
41043;SDS011;51680;49.806;18.774;2022-07-04T15:57:23;4.32;;;2.20;;
41043;SDS011;51680;49.806;18.774;2022-07-04T16:00:25;5.18;;;2.10;;
41043;SDS011;51680;49.806;18.774;2022-07-04T16:03:27;4.15;;;1.85;;
41043;SDS011;51680;49.806;18.774;2022-07-04T16:06:29;5.00;;;1.90;;
41043;SDS011;51680;49.806;18.774;2022-07-04T16:09:32;5.28;;;1.80;;
41043;SDS011;51680;49.806;18.774;2022-07-04T16:12:33;9.75;;;2.67;;
41043;SDS011;51680;49.806;18.774;2022-07-04T16:15:35;8.38;;;2.60;;
41043;SDS011;51680;49.806;18.774;2022-07-04T16:18:37;4.47;;;2.58;;
41043;SDS011;51680;49.806;18.774;2022-07-04T16:21:39;7.30;;;2.53;;
41043;SDS011;51680;49.806;18.774;2022-07-04T16:24:42;9.30;;;4.03;;
41043;SDS011;51680;49.806;18.774;2022-07-04T16:27:44;7.32;;;3.17;;
41043;SDS011;51680;49.806;18.774;2022-07-04T16:30:46;4.82;;;2.40;;
41043;SDS011;51680;49.806;18.774;2022-07-04T16:33:47;4.82;;;2.08;;
41043;SDS011;51680;49.806;18.774;2022-07-04T16:36:49;3.92;;;2.13;;
41043;SDS011;51680;49.806;18.774;2022-07-04T16:39:53;6.28;;;2.45;;
41043;SDS011;51680;49.806;18.774;2022-07-04T16:42:54;9.02;;;3.05;;
41043;SDS011;51680;49.806;18.774;2022-07-04T16:45:56;7.28;;;2.80;;
41043;SDS011;51680;49.806;18.774;2022-07-04T16:48:59;4.82;;;2.78;;
41043;SDS011;51680;49.806;18.774;2022-07-04T16:52:00;4.35;;;2.88;;
41043;SDS011;51680;49.806;18.774;2022-07-04T16:55:04;9.38;;;3.25;;
41043;SDS011;51680;49.806;18.774;2022-07-04T16:58:06;7.40;;;3.08;;
41043;SDS011;51680;49.806;18.774;2022-07-04T17:01:08;8.57;;;2.90;;
41043;SDS011;51680;49.806;18.774;2022-07-04T17:04:11;6.93;;;3.00;;
41043;SDS011;51680;49.806;18.774;2022-07-04T17:07:13;5.10;;;2.80;;
41043;SDS011;51680;49.806;18.774;2022-07-04T17:10:16;4.95;;;2.55;;
41043;SDS011;51680;49.806;18.774;2022-07-04T17:13:18;5.45;;;2.80;;
41043;SDS011;51680;49.806;18.774;2022-07-04T17:16:20;5.45;;;3.28;;
41043;SDS011;51680;49.806;18.774;2022-07-04T17:19:22;7.63;;;3.50;;
41043;SDS011;51680;49.806;18.774;2022-07-04T17:22:24;9.10;;;3.88;;
41043;SDS011;51680;49.806;18.774;2022-07-04T17:25:27;7.80;;;3.15;;
41043;SDS011;51680;49.806;18.774;2022-07-04T17:28:29;5.93;;;3.20;;
41043;SDS011;51680;49.806;18.774;2022-07-04T17:31:31;5.88;;;3.03;;
41043;SDS011;51680;49.806;18.774;2022-07-04T17:34:33;4.75;;;3.20;;
41043;SDS011;51680;49.806;18.774;2022-07-04T17:37:35;9.88;;;3.50;;
41043;SDS011;51680;49.806;18.774;2022-07-04T17:40:38;6.15;;;3.30;;
41043;SDS011;51680;49.806;18.774;2022-07-04T17:43:40;11.35;;;3.30;;
41043;SDS011;51680;49.806;18.774;2022-07-04T17:46:42;5.20;;;3.55;;
41043;SDS011;51680;49.806;18.774;2022-07-04T17:49:44;6.30;;;3.53;;
41043;SDS011;51680;49.806;18.774;2022-07-04T17:52:45;8.90;;;3.50;;
41043;SDS011;51680;49.806;18.774;2022-07-04T17:55:48;9.05;;;3.50;;
41043;SDS011;51680;49.806;18.774;2022-07-04T17:58:51;7.88;;;3.25;;
41043;SDS011;51680;49.806;18.774;2022-07-04T18:01:53;8.45;;;3.20;;
41043;SDS011;51680;49.806;18.774;2022-07-04T18:04:55;5.32;;;3.38;;
41043;SDS011;51680;49.806;18.774;2022-07-04T18:07:56;5.53;;;3.30;;
41043;SDS011;51680;49.806;18.774;2022-07-04T18:11:00;8.60;;;3.40;;
41043;SDS011;51680;49.806;18.774;2022-07-04T18:14:02;8.23;;;3.00;;
41043;SDS011;51680;49.806;18.774;2022-07-04T18:17:04;9.38;;;3.60;;
41043;SDS011;51680;49.806;18.774;2022-07-04T18:20:06;7.85;;;3.60;;
41043;SDS011;51680;49.806;18.774;2022-07-04T18:23:09;6.35;;;3.05;;